createdAt,value
2017-12-26T00:00:46.463Z,7.90
2017-12-26T00:01:46.480Z,8.20
2017-12-26T00:02:46.492Z,7.90
2017-12-26T00:03:46.505Z,9.10
2017-12-26T00:04:46.517Z,9.30
2017-12-26T00:05:46.534Z,7.80
2017-12-26T00:06:46.541Z,7.20
2017-12-26T00:07:46.554Z,8.60
2017-12-26T00:08:46.567Z,7.90
2017-12-26T00:09:46.581Z,7.20
2017-12-26T00:10:46.595Z,8.00
2017-12-26T00:11:46.606Z,8.70
2017-12-26T00:12:46.619Z,7.70
2017-12-26T00:13:46.631Z,7.80
2017-12-26T00:14:46.646Z,7.80
2017-12-26T00:15:46.658Z,9.00
2017-12-26T00:16:46.672Z,8.10
2017-12-26T00:17:46.684Z,8.10
2017-12-26T00:18:46.696Z,8.10
2017-12-26T00:19:46.709Z,8.00
2017-12-26T00:20:46.720Z,7.00
2017-12-26T00:21:46.734Z,7.60
2017-12-26T00:22:46.753Z,9.80
2017-12-26T00:23:46.763Z,7.20
2017-12-26T00:24:46.773Z,8.00
2017-12-26T00:25:46.784Z,7.00
2017-12-26T00:26:46.797Z,7.10
2017-12-26T00:27:46.812Z,8.40
2017-12-26T00:28:46.827Z,7.90
2017-12-26T00:29:46.837Z,7.50
2017-12-26T00:30:46.848Z,7.10
2017-12-26T00:31:46.865Z,8.50
2017-12-26T00:32:46.875Z,7.90
2017-12-26T00:33:46.894Z,7.40
2017-12-26T00:34:46.904Z,6.90
2017-12-26T00:35:46.914Z,7.50
2017-12-26T00:36:46.926Z,6.70
2017-12-26T00:37:46.939Z,7.10
2017-12-26T00:38:46.970Z,7.80
2017-12-26T00:39:46.971Z,7.80
2017-12-26T00:40:46.977Z,7.50
2017-12-26T00:41:46.991Z,7.00
2017-12-26T00:42:47.003Z,6.80
2017-12-26T00:43:47.020Z,6.70
2017-12-26T00:44:47.043Z,7.00
2017-12-26T00:45:47.041Z,7.30
2017-12-26T00:46:47.054Z,6.90
2017-12-26T00:47:47.066Z,6.80
2017-12-26T00:48:47.080Z,6.60
2017-12-26T00:49:47.092Z,6.20
2017-12-26T00:50:47.106Z,6.80
2017-12-26T00:51:47.123Z,7.50
2017-12-26T00:52:47.130Z,7.00
2017-12-26T00:53:47.152Z,6.70
2017-12-26T00:54:47.157Z,5.90
2017-12-26T00:55:47.171Z,6.10
2017-12-26T00:56:47.185Z,7.00
2017-12-26T00:57:47.193Z,6.20
2017-12-26T00:58:47.208Z,5.90
2017-12-26T00:59:47.221Z,7.00
2017-12-26T01:00:47.233Z,6.40
2017-12-26T01:01:47.247Z,6.20
2017-12-26T01:02:47.258Z,7.00
2017-12-26T01:03:47.278Z,6.80
2017-12-26T01:04:47.284Z,6.60
2017-12-26T01:05:47.297Z,6.00
2017-12-26T01:06:47.313Z,6.10
2017-12-26T01:07:47.322Z,5.80
2017-12-26T01:08:47.341Z,6.20
2017-12-26T01:09:47.349Z,6.10
2017-12-26T01:10:47.363Z,5.70
2017-12-26T01:11:47.374Z,5.80
2017-12-26T01:12:47.385Z,5.70
2017-12-26T01:13:47.501Z,6.00
2017-12-26T01:14:47.412Z,5.40
2017-12-26T01:15:47.427Z,5.40
2017-12-26T01:16:47.435Z,5.60
2017-12-26T01:17:47.448Z,5.70
2017-12-26T01:18:47.459Z,5.30
2017-12-26T01:19:47.474Z,5.60
2017-12-26T01:20:47.486Z,5.70
2017-12-26T01:21:47.498Z,5.60
2017-12-26T01:22:47.510Z,5.20
2017-12-26T01:23:47.521Z,5.00
2017-12-26T01:24:47.537Z,5.40
2017-12-26T01:25:47.552Z,5.90
2017-12-26T01:26:47.560Z,5.20
2017-12-26T01:27:47.578Z,5.30
2017-12-26T01:28:47.583Z,5.50
2017-12-26T01:29:47.597Z,5.50
2017-12-26T01:30:47.608Z,5.40
2017-12-26T01:31:47.621Z,5.30
2017-12-26T01:32:47.646Z,5.30
2017-12-26T01:33:47.650Z,5.20
2017-12-26T01:34:47.661Z,5.10
2017-12-26T01:35:47.687Z,5.50
2017-12-26T01:36:47.685Z,5.20
2017-12-26T01:37:47.696Z,5.80
2017-12-26T01:38:47.711Z,5.60
2017-12-26T01:39:47.721Z,5.20
2017-12-26T01:40:47.941Z,7.10
2017-12-26T01:41:47.785Z,5.00
2017-12-26T01:42:47.758Z,5.90
2017-12-26T01:43:47.770Z,6.10
2017-12-26T01:44:47.782Z,5.30
2017-12-26T01:45:47.795Z,4.80
2017-12-26T01:46:47.808Z,5.40
2017-12-26T01:47:47.820Z,5.30
2017-12-26T01:48:47.831Z,5.50
2017-12-26T01:49:47.846Z,5.70
2017-12-26T01:50:47.858Z,5.50
2017-12-26T01:51:47.868Z,5.80
2017-12-26T01:52:47.880Z,6.10
2017-12-26T01:53:47.894Z,6.00
2017-12-26T01:54:47.906Z,5.50
2017-12-26T01:55:47.926Z,5.90
2017-12-26T01:56:47.930Z,5.30
2017-12-26T01:57:47.940Z,5.80
2017-12-26T01:58:47.954Z,5.90
2017-12-26T01:59:47.974Z,5.70
2017-12-26T02:00:47.981Z,7.20
2017-12-26T02:01:47.995Z,6.00
2017-12-26T02:02:48.006Z,5.60
2017-12-26T02:03:48.016Z,6.10
2017-12-26T02:04:48.029Z,5.30
2017-12-26T02:05:48.039Z,6.20
2017-12-26T02:06:48.056Z,6.60
2017-12-26T02:07:48.065Z,5.90
2017-12-26T02:08:48.075Z,6.10
2017-12-26T02:09:48.089Z,5.60
2017-12-26T02:10:48.100Z,5.90
2017-12-26T02:11:48.114Z,5.40
2017-12-26T02:12:48.124Z,6.40
2017-12-26T02:13:48.143Z,6.40
2017-12-26T02:14:48.201Z,5.30
2017-12-26T02:15:48.165Z,6.00
2017-12-26T02:16:48.174Z,6.70
2017-12-26T02:17:48.186Z,5.70
2017-12-26T02:18:48.200Z,6.80
2017-12-26T02:19:48.213Z,6.00
2017-12-26T02:20:48.222Z,5.80
2017-12-26T02:21:48.235Z,6.20
2017-12-26T02:22:48.253Z,6.20
2017-12-26T02:23:48.259Z,5.50
2017-12-26T02:24:48.274Z,6.60
2017-12-26T02:25:48.285Z,5.60
2017-12-26T02:26:48.318Z,6.70
2017-12-26T02:27:48.312Z,5.40
2017-12-26T02:28:48.322Z,5.70
2017-12-26T02:29:48.334Z,5.30
2017-12-26T02:30:48.346Z,5.40
2017-12-26T02:31:48.357Z,5.60
2017-12-26T02:32:48.371Z,6.50
2017-12-26T02:33:48.386Z,5.70
2017-12-26T02:34:48.394Z,5.60
2017-12-26T02:35:48.405Z,5.70
2017-12-26T02:36:48.418Z,5.60
2017-12-26T02:37:48.431Z,6.50
2017-12-26T02:38:48.444Z,5.20
2017-12-26T02:39:48.471Z,7.00
2017-12-26T02:40:48.479Z,6.00
2017-12-26T02:41:48.507Z,5.90
2017-12-26T02:42:48.494Z,5.70
2017-12-26T02:43:48.505Z,6.40
2017-12-26T02:44:48.521Z,6.10
2017-12-26T02:45:48.532Z,6.00
2017-12-26T02:46:48.590Z,5.70
2017-12-26T02:47:48.552Z,5.50
2017-12-26T02:48:48.566Z,5.70
2017-12-26T02:49:48.582Z,6.30
2017-12-26T02:50:48.588Z,6.50
2017-12-26T02:51:48.604Z,7.40
2017-12-26T02:52:48.613Z,6.00
2017-12-26T02:53:48.626Z,5.70
2017-12-26T02:54:48.636Z,7.20
2017-12-26T02:55:48.651Z,6.00
2017-12-26T02:56:48.667Z,8.20
2017-12-26T02:57:48.673Z,5.30
2017-12-26T02:58:48.691Z,6.80
2017-12-26T02:59:48.698Z,5.70
2017-12-26T03:00:48.709Z,6.00
2017-12-26T03:01:48.770Z,7.00
2017-12-26T03:02:48.733Z,7.30
2017-12-26T03:03:48.752Z,7.20
2017-12-26T03:04:48.762Z,7.60
2017-12-26T03:05:48.770Z,6.80
2017-12-26T03:06:48.786Z,6.50
2017-12-26T03:07:48.795Z,6.70
2017-12-26T03:08:48.804Z,6.60
2017-12-26T03:09:48.816Z,7.00
2017-12-26T03:10:48.830Z,7.60
2017-12-26T03:11:48.843Z,6.40
2017-12-26T03:12:48.855Z,7.00
2017-12-26T03:13:48.869Z,7.90
2017-12-26T03:14:48.918Z,6.40
2017-12-26T03:15:48.893Z,6.10
2017-12-26T03:16:48.903Z,7.50
2017-12-26T03:17:48.917Z,7.40
2017-12-26T03:18:48.932Z,7.10
2017-12-26T03:19:48.939Z,7.30
2017-12-26T03:20:48.950Z,6.80
2017-12-26T03:21:48.963Z,6.30
2017-12-26T03:22:48.976Z,8.40
2017-12-26T03:23:48.989Z,7.40
2017-12-26T03:24:49.009Z,7.30
2017-12-26T03:25:49.012Z,7.70
2017-12-26T03:26:49.023Z,7.10
2017-12-26T03:27:49.038Z,8.00
2017-12-26T03:28:49.053Z,7.50
2017-12-26T03:29:49.059Z,7.10
2017-12-26T03:30:49.073Z,7.60
2017-12-26T03:31:49.089Z,7.40
2017-12-26T03:32:49.094Z,7.80
2017-12-26T03:33:49.109Z,8.50
2017-12-26T03:34:49.121Z,8.10
2017-12-26T03:35:49.135Z,7.70
2017-12-26T03:36:49.147Z,7.40
2017-12-26T03:37:49.156Z,8.80
2017-12-26T03:38:49.168Z,8.30
2017-12-26T03:39:49.180Z,8.40
2017-12-26T03:40:49.195Z,9.10
2017-12-26T03:41:49.206Z,8.30
2017-12-26T03:42:49.215Z,8.40
2017-12-26T03:43:49.229Z,8.70
2017-12-26T03:44:49.240Z,8.80
2017-12-26T03:45:49.252Z,10.50
2017-12-26T03:46:49.266Z,9.20
2017-12-26T03:47:49.276Z,9.70
2017-12-26T03:48:49.290Z,9.00
2017-12-26T03:49:49.314Z,9.90
2017-12-26T03:50:49.311Z,10.00
2017-12-26T03:51:49.328Z,10.20
2017-12-26T03:52:49.337Z,9.30
2017-12-26T03:53:49.350Z,9.50
2017-12-26T03:54:49.361Z,9.00
2017-12-26T03:55:49.374Z,9.70
2017-12-26T03:56:49.395Z,10.20
2017-12-26T03:57:49.403Z,9.40
2017-12-26T03:58:49.409Z,9.90
2017-12-26T03:59:49.423Z,10.40
2017-12-26T04:00:49.433Z,9.90
2017-12-26T04:01:49.445Z,9.50
2017-12-26T04:02:49.459Z,10.00
2017-12-26T04:03:49.471Z,10.00
2017-12-26T04:04:49.481Z,10.40
2017-12-26T04:05:49.501Z,9.30
2017-12-26T04:06:49.508Z,9.60
2017-12-26T04:07:49.521Z,9.00
2017-12-26T04:08:49.531Z,8.80
2017-12-26T04:09:49.542Z,12.00
2017-12-26T04:10:49.554Z,9.00
2017-12-26T04:11:49.566Z,8.80
2017-12-26T04:12:49.582Z,9.80
2017-12-26T04:13:49.592Z,10.00
2017-12-26T04:14:49.618Z,9.40
2017-12-26T04:15:49.618Z,10.10
2017-12-26T04:16:49.683Z,10.10
2017-12-26T04:17:49.637Z,9.40
2017-12-26T04:18:49.652Z,10.00
2017-12-26T04:19:49.665Z,9.10
2017-12-26T04:20:49.675Z,8.60
2017-12-26T04:21:49.690Z,9.30
2017-12-26T04:22:49.702Z,9.10
2017-12-26T04:23:49.714Z,9.80
2017-12-26T04:24:49.725Z,9.40
2017-12-26T04:25:49.737Z,9.80
2017-12-26T04:26:49.750Z,8.90
2017-12-26T04:27:49.765Z,9.90
2017-12-26T04:28:49.774Z,7.90
2017-12-26T04:29:49.792Z,9.40
2017-12-26T04:30:49.800Z,10.50
2017-12-26T04:31:49.813Z,10.10
2017-12-26T04:32:49.827Z,8.90
2017-12-26T04:33:49.843Z,9.70
2017-12-26T04:34:49.851Z,9.70
2017-12-26T04:35:49.861Z,10.10
2017-12-26T04:36:49.888Z,9.80
2017-12-26T04:37:49.888Z,9.50
2017-12-26T04:38:49.903Z,9.10
2017-12-26T04:39:49.912Z,9.70
2017-12-26T04:40:49.923Z,10.50
2017-12-26T04:41:49.936Z,10.00
2017-12-26T04:42:49.949Z,9.10
2017-12-26T04:43:49.964Z,11.40
2017-12-26T04:44:49.974Z,10.50
2017-12-26T04:45:49.993Z,8.50
2017-12-26T04:46:49.998Z,8.70
2017-12-26T04:47:50.011Z,9.10
2017-12-26T04:48:50.023Z,8.80
2017-12-26T04:49:50.034Z,8.40
2017-12-26T04:50:50.049Z,10.00
2017-12-26T04:51:50.061Z,8.90
2017-12-26T04:52:50.073Z,9.90
2017-12-26T04:53:50.084Z,8.60
2017-12-26T04:54:50.100Z,9.00
2017-12-26T04:55:50.111Z,8.60
2017-12-26T04:56:50.123Z,10.10
2017-12-26T04:57:50.135Z,9.30
2017-12-26T04:58:50.166Z,9.50
2017-12-26T04:59:50.165Z,8.90
2017-12-26T05:00:50.172Z,10.80
2017-12-26T05:01:50.186Z,9.00
2017-12-26T05:02:50.205Z,9.80
2017-12-26T05:03:50.215Z,11.00
2017-12-26T05:04:50.222Z,9.40
2017-12-26T05:05:50.233Z,8.60
2017-12-26T05:06:50.248Z,10.10
2017-12-26T05:07:50.260Z,9.20
2017-12-26T05:08:50.282Z,10.20
2017-12-26T05:09:50.283Z,9.10
2017-12-26T05:10:50.299Z,9.80
2017-12-26T05:11:50.315Z,8.90
2017-12-26T05:12:50.322Z,10.00
2017-12-26T05:13:50.602Z,11.20
2017-12-26T05:14:50.352Z,8.50
2017-12-26T05:15:50.361Z,8.50
2017-12-26T05:16:50.367Z,9.30
2017-12-26T05:17:50.380Z,9.50
2017-12-26T05:18:50.391Z,10.20
2017-12-26T05:19:50.403Z,8.10
2017-12-26T05:20:50.420Z,8.70
2017-12-26T05:21:50.429Z,8.70
2017-12-26T05:22:50.442Z,10.00
2017-12-26T05:23:50.460Z,9.40
2017-12-26T05:24:50.466Z,10.20
2017-12-26T05:25:50.480Z,9.80
2017-12-26T05:26:50.496Z,9.10
2017-12-26T05:27:50.506Z,9.70
2017-12-26T05:28:50.517Z,9.20
2017-12-26T05:29:50.532Z,9.40
2017-12-26T05:30:50.556Z,8.80
2017-12-26T05:31:50.556Z,9.70
2017-12-26T05:32:50.572Z,8.60
2017-12-26T05:33:50.580Z,8.20
2017-12-26T05:34:50.595Z,9.60
2017-12-26T05:35:50.606Z,9.20
2017-12-26T05:36:50.619Z,9.60
2017-12-26T05:37:50.732Z,9.80
2017-12-26T05:38:50.645Z,8.50
2017-12-26T05:39:50.670Z,9.30
2017-12-26T05:40:50.668Z,10.70
2017-12-26T05:41:50.683Z,9.00
2017-12-26T05:42:50.705Z,10.70
2017-12-26T05:43:50.710Z,10.00
2017-12-26T05:44:50.719Z,9.10
2017-12-26T05:45:50.734Z,8.90
2017-12-26T05:46:50.747Z,9.50
2017-12-26T05:47:50.758Z,10.10
2017-12-26T05:48:50.770Z,9.30
2017-12-26T05:49:50.783Z,9.10
2017-12-26T05:50:50.796Z,8.40
2017-12-26T05:51:50.809Z,9.40
2017-12-26T05:52:50.822Z,10.10
2017-12-26T05:53:50.835Z,10.10
2017-12-26T05:54:50.849Z,8.70
2017-12-26T05:55:50.864Z,8.10
2017-12-26T05:56:50.874Z,8.50
2017-12-26T05:57:50.887Z,8.60
2017-12-26T05:58:50.902Z,9.50
2017-12-26T05:59:51.016Z,8.00
2017-12-26T06:00:50.924Z,8.50
2017-12-26T06:01:50.938Z,8.80
2017-12-26T06:02:50.953Z,9.90
2017-12-26T06:03:50.966Z,9.60
2017-12-26T06:04:50.985Z,8.60
2017-12-26T06:05:50.990Z,8.80
2017-12-26T06:06:51.004Z,8.80
2017-12-26T06:07:51.018Z,8.60
2017-12-26T06:08:51.029Z,7.50
2017-12-26T06:09:51.045Z,8.00
2017-12-26T06:10:51.056Z,9.00
2017-12-26T06:11:51.069Z,8.40
2017-12-26T06:12:51.086Z,9.00
2017-12-26T06:13:51.095Z,8.40
2017-12-26T06:14:51.108Z,8.50
2017-12-26T06:15:51.125Z,8.50
2017-12-26T06:16:51.143Z,7.80
2017-12-26T06:17:51.146Z,8.70
2017-12-26T06:18:51.160Z,9.00
2017-12-26T06:19:51.179Z,7.70
2017-12-26T06:20:51.186Z,8.70
2017-12-26T06:21:51.199Z,8.40
2017-12-26T06:22:51.213Z,8.50
2017-12-26T06:23:51.229Z,7.80
2017-12-26T06:24:51.239Z,7.70
2017-12-26T06:25:51.252Z,8.00
2017-12-26T06:26:51.269Z,7.50
2017-12-26T06:27:51.278Z,9.50
2017-12-26T06:28:51.293Z,8.40
2017-12-26T06:29:51.305Z,10.50
2017-12-26T06:30:51.319Z,8.50
2017-12-26T06:31:51.331Z,9.60
2017-12-26T06:32:51.345Z,8.50
2017-12-26T06:33:51.359Z,8.00
2017-12-26T06:34:51.374Z,7.70
2017-12-26T06:35:51.388Z,9.10
2017-12-26T06:36:51.411Z,8.60
2017-12-26T06:37:51.510Z,7.90
2017-12-26T06:38:51.424Z,8.80
2017-12-26T06:39:51.437Z,9.50
2017-12-26T06:40:51.451Z,7.20
2017-12-26T06:41:51.462Z,7.60
2017-12-26T06:42:51.477Z,9.50
2017-12-26T06:43:51.590Z,7.60
2017-12-26T06:44:51.506Z,8.50
2017-12-26T06:45:51.517Z,8.30
2017-12-26T06:46:51.530Z,8.00
2017-12-26T06:47:51.543Z,9.10
2017-12-26T06:48:51.556Z,9.10
2017-12-26T06:49:51.570Z,9.70
2017-12-26T06:50:51.584Z,7.80
2017-12-26T06:51:51.597Z,10.30
2017-12-26T06:52:51.610Z,9.20
2017-12-26T06:53:51.625Z,7.60
2017-12-26T06:54:51.636Z,7.60
2017-12-26T06:55:51.650Z,9.20
2017-12-26T06:56:51.663Z,10.70
2017-12-26T06:57:51.674Z,9.50
2017-12-26T06:58:51.689Z,9.10
2017-12-26T06:59:51.705Z,9.90
2017-12-26T07:00:51.715Z,8.40
2017-12-26T07:01:51.779Z,8.70
2017-12-26T07:02:51.743Z,9.00
2017-12-26T07:03:51.755Z,10.40
2017-12-26T07:04:51.769Z,10.20
2017-12-26T07:05:51.782Z,10.30
2017-12-26T07:06:51.795Z,9.00
2017-12-26T07:07:51.808Z,8.00
2017-12-26T07:08:51.822Z,10.10
2017-12-26T07:09:51.836Z,9.70
2017-12-26T07:10:51.848Z,8.60
2017-12-26T07:11:51.865Z,11.40
2017-12-26T07:12:51.874Z,8.00
2017-12-26T07:13:51.886Z,9.70
2017-12-26T07:14:51.901Z,8.70
2017-12-26T07:15:51.914Z,9.10
2017-12-26T07:16:51.927Z,8.90
2017-12-26T07:17:51.940Z,9.70
2017-12-26T07:18:51.954Z,9.20
2017-12-26T07:19:52.067Z,9.50
2017-12-26T07:20:51.981Z,9.60
2017-12-26T07:21:51.992Z,9.70
2017-12-26T07:22:52.007Z,10.00
2017-12-26T07:23:52.020Z,9.20
2017-12-26T07:24:52.032Z,9.10
2017-12-26T07:25:52.047Z,9.40
2017-12-26T07:26:52.061Z,9.50
2017-12-26T07:27:52.074Z,8.80
2017-12-26T07:28:52.085Z,10.50
2017-12-26T07:29:52.099Z,9.60
2017-12-26T07:30:52.113Z,10.80
2017-12-26T07:31:52.125Z,9.10
2017-12-26T07:32:52.136Z,9.40
2017-12-26T07:33:52.150Z,10.00
2017-12-26T07:34:52.163Z,9.50
2017-12-26T07:35:52.176Z,8.90
2017-12-26T07:36:52.190Z,9.70
2017-12-26T07:37:52.202Z,9.10
2017-12-26T07:38:52.219Z,10.50
2017-12-26T07:39:52.229Z,8.40
2017-12-26T07:40:52.239Z,8.40
2017-12-26T07:41:52.258Z,9.50
2017-12-26T07:42:52.266Z,9.10
2017-12-26T07:43:52.279Z,9.30
2017-12-26T07:44:52.292Z,9.30
2017-12-26T07:45:52.309Z,8.00
2017-12-26T07:46:52.318Z,8.40
2017-12-26T07:47:52.331Z,9.20
2017-12-26T07:48:52.344Z,7.80
2017-12-26T07:49:52.356Z,7.20
2017-12-26T07:50:52.370Z,7.90
2017-12-26T07:51:52.383Z,7.30
2017-12-26T07:52:52.395Z,6.70
2017-12-26T07:53:52.412Z,7.70
2017-12-26T07:54:52.422Z,7.60
2017-12-26T07:55:52.437Z,6.70
2017-12-26T07:56:52.445Z,7.00
2017-12-26T07:57:52.459Z,6.30
2017-12-26T07:58:52.472Z,7.10
2017-12-26T07:59:52.484Z,5.90
2017-12-26T08:00:52.500Z,7.30
2017-12-26T08:01:52.510Z,5.10
2017-12-26T08:02:52.523Z,4.70
2017-12-26T08:03:52.538Z,4.50
2017-12-26T08:04:52.556Z,5.80
2017-12-26T08:05:52.561Z,5.60
2017-12-26T08:06:52.580Z,5.10
2017-12-26T08:07:52.588Z,5.20
2017-12-26T08:08:52.599Z,5.10
2017-12-26T08:09:52.611Z,5.70
2017-12-26T08:10:52.632Z,4.70
2017-12-26T08:11:52.642Z,5.70
2017-12-26T08:12:52.649Z,4.40
2017-12-26T08:13:52.662Z,4.30
2017-12-26T08:14:52.676Z,4.30
2017-12-26T08:15:52.688Z,5.80
2017-12-26T08:16:52.701Z,4.70
2017-12-26T08:17:52.714Z,4.80
2017-12-26T08:18:52.733Z,6.50
2017-12-26T08:19:52.744Z,4.40
2017-12-26T08:20:52.752Z,4.30
2017-12-26T08:21:52.772Z,6.40
2017-12-26T08:22:52.777Z,5.50
2017-12-26T08:23:52.830Z,6.20
2017-12-26T08:24:52.802Z,3.80
2017-12-26T08:25:52.817Z,5.10
2017-12-26T08:26:52.828Z,5.20
2017-12-26T08:27:52.842Z,5.10
2017-12-26T08:28:52.855Z,6.20
2017-12-26T08:29:52.869Z,5.10
2017-12-26T08:30:52.905Z,5.20
2017-12-26T08:31:52.895Z,5.50
2017-12-26T08:32:52.908Z,4.90
2017-12-26T08:33:52.918Z,4.20
2017-12-26T08:34:52.930Z,4.40
2017-12-26T08:35:52.943Z,4.30
2017-12-26T08:36:52.956Z,4.30
2017-12-26T08:37:53.016Z,4.70
2017-12-26T08:38:52.982Z,4.50
2017-12-26T08:39:53.001Z,4.80
2017-12-26T08:40:53.007Z,5.00
2017-12-26T08:41:53.018Z,3.90
2017-12-26T08:42:53.045Z,4.70
2017-12-26T08:43:53.047Z,4.50
2017-12-26T08:44:53.065Z,4.80
2017-12-26T08:45:53.068Z,4.90
2017-12-26T08:46:53.084Z,5.20
2017-12-26T08:47:53.096Z,4.50
2017-12-26T08:48:53.106Z,5.80
2017-12-26T08:49:53.120Z,4.70
2017-12-26T08:50:53.131Z,4.90
2017-12-26T08:51:53.198Z,5.60
2017-12-26T08:52:53.157Z,4.60
2017-12-26T08:53:53.170Z,5.30
2017-12-26T08:54:53.183Z,4.80
2017-12-26T08:55:53.197Z,4.10
2017-12-26T08:56:53.208Z,4.60
2017-12-26T08:57:53.220Z,5.40
2017-12-26T08:58:53.234Z,4.10
2017-12-26T08:59:53.249Z,3.90
2017-12-26T09:00:53.257Z,4.80
2017-12-26T09:01:53.270Z,5.00
2017-12-26T09:02:53.282Z,4.30
2017-12-26T09:03:53.905Z,5.40
2017-12-26T09:04:53.316Z,6.00
2017-12-26T09:05:53.320Z,5.90
2017-12-26T09:06:53.333Z,5.20
2017-12-26T09:07:53.346Z,3.50
2017-12-26T09:08:53.356Z,4.40
2017-12-26T09:09:53.373Z,4.50
2017-12-26T09:10:53.382Z,4.20
2017-12-26T09:11:53.598Z,5.00
2017-12-26T09:12:53.408Z,3.50
2017-12-26T09:13:53.424Z,3.80
2017-12-26T09:14:53.434Z,3.30
2017-12-26T09:15:53.446Z,4.00
2017-12-26T09:16:53.458Z,3.70
2017-12-26T09:17:53.472Z,4.30
2017-12-26T09:18:53.483Z,3.70
2017-12-26T09:19:53.498Z,3.30
2017-12-26T09:20:53.513Z,4.40
2017-12-26T09:21:53.521Z,4.30
2017-12-26T09:22:53.538Z,4.00
2017-12-26T09:23:53.546Z,3.50
2017-12-26T09:24:53.559Z,3.90
2017-12-26T09:25:53.572Z,4.60
2017-12-26T09:26:53.585Z,3.30
2017-12-26T09:27:53.598Z,4.20
2017-12-26T09:28:53.610Z,3.70
2017-12-26T09:29:53.625Z,3.20
2017-12-26T09:30:53.635Z,3.00
2017-12-26T09:31:53.648Z,3.30
2017-12-26T09:32:53.678Z,3.00
2017-12-26T09:33:53.673Z,3.10
2017-12-26T09:34:53.686Z,3.90
2017-12-26T09:35:53.699Z,3.10
2017-12-26T09:36:53.711Z,4.20
2017-12-26T09:37:53.723Z,4.40
2017-12-26T09:38:53.783Z,3.00
2017-12-26T09:39:53.752Z,4.30
2017-12-26T09:40:53.760Z,3.90
2017-12-26T09:41:53.775Z,4.40
2017-12-26T09:42:53.789Z,3.00
2017-12-26T09:43:53.804Z,3.70
2017-12-26T09:44:53.813Z,3.90
2017-12-26T09:45:53.825Z,4.00
2017-12-26T09:46:53.854Z,3.70
2017-12-26T09:47:53.851Z,4.40
2017-12-26T09:48:53.867Z,3.20
2017-12-26T09:49:53.881Z,3.30
2017-12-26T09:50:53.905Z,3.20
2017-12-26T09:51:53.905Z,3.50
2017-12-26T09:52:53.920Z,3.90
2017-12-26T09:53:53.929Z,3.70
2017-12-26T09:54:53.942Z,3.90
2017-12-26T09:55:53.954Z,3.70
2017-12-26T09:56:53.966Z,4.00
2017-12-26T09:57:53.981Z,4.00
2017-12-26T09:58:54.009Z,6.20
2017-12-26T09:59:54.007Z,3.80
2017-12-26T10:00:54.018Z,4.10
2017-12-26T10:01:54.034Z,5.00
2017-12-26T10:02:54.046Z,3.50
2017-12-26T10:03:54.064Z,5.00
2017-12-26T10:04:54.072Z,4.60
2017-12-26T10:05:54.086Z,3.90
2017-12-26T10:06:54.100Z,3.70
2017-12-26T10:07:54.108Z,3.80
2017-12-26T10:08:54.122Z,4.90
2017-12-26T10:09:54.135Z,3.90
2017-12-26T10:10:54.149Z,3.80
2017-12-26T10:11:54.162Z,3.70
2017-12-26T10:12:54.174Z,3.00
2017-12-26T10:13:54.187Z,3.50
2017-12-26T10:14:54.201Z,3.70
2017-12-26T10:15:54.214Z,3.60
2017-12-26T10:16:54.233Z,3.20
2017-12-26T10:17:54.241Z,3.90
2017-12-26T10:18:54.254Z,5.60
2017-12-26T10:19:54.267Z,4.20
2017-12-26T10:20:54.280Z,3.30
2017-12-26T10:21:54.296Z,3.50
2017-12-26T10:22:54.318Z,5.10
2017-12-26T10:23:54.318Z,3.50
2017-12-26T10:24:54.331Z,4.30
2017-12-26T10:25:54.349Z,3.40
2017-12-26T10:26:54.358Z,4.30
2017-12-26T10:27:54.372Z,3.70
2017-12-26T10:28:54.435Z,4.30
2017-12-26T10:29:54.402Z,4.20
2017-12-26T10:30:54.411Z,4.30
2017-12-26T10:31:54.424Z,3.60
2017-12-26T10:32:54.441Z,3.50
2017-12-26T10:33:54.452Z,4.50
2017-12-26T10:34:54.464Z,2.90
2017-12-26T10:35:54.531Z,3.20
2017-12-26T10:36:54.490Z,3.00
2017-12-26T10:37:54.504Z,2.80
2017-12-26T10:38:54.521Z,5.00
2017-12-26T10:39:54.531Z,4.70
2017-12-26T10:40:54.545Z,3.00
2017-12-26T10:41:54.555Z,2.90
2017-12-26T10:42:54.576Z,3.20
2017-12-26T10:43:54.582Z,3.30
2017-12-26T10:44:54.597Z,3.10
2017-12-26T10:45:54.607Z,3.20
2017-12-26T10:46:54.621Z,5.70
2017-12-26T10:47:54.638Z,4.80
2017-12-26T10:48:54.647Z,4.60
2017-12-26T10:49:54.682Z,2.80
2017-12-26T10:50:54.675Z,3.50
2017-12-26T10:51:54.689Z,3.80
2017-12-26T10:52:54.702Z,4.40
2017-12-26T10:53:54.714Z,4.90
2017-12-26T10:54:54.734Z,4.40
2017-12-26T10:55:54.742Z,5.40
2017-12-26T10:57:54.768Z,5.10
2017-12-26T10:58:54.782Z,2.80
2017-12-26T10:59:54.794Z,3.50
2017-12-26T11:00:54.807Z,4.70
2017-12-26T11:01:54.823Z,3.40
2017-12-26T11:03:54.848Z,2.90
2017-12-26T11:04:54.861Z,3.10
2017-12-26T11:05:54.880Z,3.30
2017-12-26T11:06:54.888Z,4.10
2017-12-26T11:07:54.904Z,4.10
2017-12-26T11:08:54.915Z,3.30
2017-12-26T11:09:54.929Z,3.90
2017-12-26T11:10:54.942Z,4.10
2017-12-26T11:11:54.955Z,4.00
2017-12-26T11:12:54.967Z,4.10
2017-12-26T11:13:54.980Z,4.60
2017-12-26T11:14:54.993Z,4.20
2017-12-26T11:15:55.010Z,5.40
2017-12-26T11:16:55.023Z,3.20
2017-12-26T11:17:55.035Z,4.50
2017-12-26T11:18:55.049Z,4.70
2017-12-26T11:19:55.061Z,5.60
2017-12-26T11:20:55.077Z,3.60
2017-12-26T11:21:55.087Z,4.50
2017-12-26T11:22:55.102Z,3.00
2017-12-26T11:23:55.116Z,3.10
2017-12-26T11:24:55.129Z,4.40
2017-12-26T11:25:55.140Z,5.10
2017-12-26T11:26:55.156Z,3.70
2017-12-26T11:27:55.168Z,4.30
2017-12-26T11:28:55.183Z,4.10
2017-12-26T11:29:55.197Z,3.70
2017-12-26T11:30:55.211Z,6.30
2017-12-26T11:31:55.223Z,3.60
2017-12-26T11:32:55.234Z,3.50
2017-12-26T11:33:55.249Z,5.30
2017-12-26T11:34:55.263Z,4.50
2017-12-26T11:35:55.275Z,5.30
2017-12-26T11:36:55.288Z,4.00
2017-12-26T11:37:55.300Z,3.50
2017-12-26T11:38:55.320Z,5.10
2017-12-26T11:39:55.330Z,4.60
2017-12-26T11:40:55.349Z,3.60
2017-12-26T11:41:55.356Z,3.20
2017-12-26T11:42:55.369Z,4.00
2017-12-26T11:43:55.381Z,3.80
2017-12-26T11:44:55.393Z,3.50
2017-12-26T11:45:55.409Z,4.70
2017-12-26T11:46:55.422Z,4.10
2017-12-26T11:47:55.435Z,3.80
2017-12-26T11:48:55.451Z,3.60
2017-12-26T11:49:55.463Z,2.80
2017-12-26T11:50:55.473Z,6.10
2017-12-26T11:51:55.486Z,4.20
2017-12-26T11:52:55.497Z,5.20
2017-12-26T11:53:55.512Z,4.60
2017-12-26T11:54:55.528Z,2.60
2017-12-26T11:55:55.540Z,4.50
2017-12-26T11:56:55.552Z,4.10
2017-12-26T11:57:55.565Z,2.70
2017-12-26T11:58:55.579Z,4.60
2017-12-26T11:59:55.595Z,3.80
2017-12-26T12:00:55.606Z,3.50
2017-12-26T12:01:55.668Z,3.60
2017-12-26T12:02:55.631Z,3.60
2017-12-26T12:03:55.646Z,3.30
2017-12-26T12:04:55.659Z,6.20
2017-12-26T12:05:55.674Z,4.10
2017-12-26T12:06:55.684Z,4.70
2017-12-26T12:07:55.698Z,3.90
2017-12-26T12:08:55.711Z,3.10
2017-12-26T12:09:55.725Z,4.70
2017-12-26T12:10:55.738Z,3.00
2017-12-26T12:11:55.771Z,4.70
2017-12-26T12:12:55.767Z,5.10
2017-12-26T12:13:55.778Z,4.40
2017-12-26T12:14:55.794Z,3.20
2017-12-26T12:15:55.805Z,3.60
2017-12-26T12:16:55.851Z,5.70
2017-12-26T12:17:55.830Z,5.40
2017-12-26T12:18:55.844Z,3.60
2017-12-26T12:19:55.858Z,3.50
2017-12-26T12:20:55.869Z,3.10
2017-12-26T12:21:55.884Z,7.00
2017-12-26T12:22:55.898Z,3.90
2017-12-26T12:23:55.913Z,6.60
2017-12-26T12:24:55.924Z,3.20
2017-12-26T12:25:55.938Z,3.60
2017-12-26T12:26:55.957Z,3.00
2017-12-26T12:27:55.963Z,3.70
2017-12-26T12:28:55.978Z,5.90
2017-12-26T12:29:55.992Z,4.60
2017-12-26T12:30:56.006Z,5.20
2017-12-26T12:31:56.021Z,3.20
2017-12-26T12:32:56.030Z,4.20
2017-12-26T12:33:56.043Z,6.00
2017-12-26T12:34:56.058Z,2.80
2017-12-26T12:35:56.072Z,5.80
2017-12-26T12:36:56.086Z,4.30
2017-12-26T12:37:56.096Z,3.70
2017-12-26T12:38:56.121Z,2.50
2017-12-26T12:39:56.124Z,3.70
2017-12-26T12:40:56.138Z,2.90
2017-12-26T12:41:56.152Z,3.80
2017-12-26T12:42:56.167Z,7.20
2017-12-26T12:43:56.183Z,4.70
2017-12-26T12:44:56.191Z,3.60
2017-12-26T12:45:56.204Z,4.80
2017-12-26T12:46:56.219Z,3.80
2017-12-26T12:47:56.234Z,4.40
2017-12-26T12:48:56.244Z,4.20
2017-12-26T12:49:56.257Z,2.90
2017-12-26T12:50:56.271Z,4.40
2017-12-26T12:51:56.334Z,4.20
2017-12-26T12:52:56.299Z,2.80
2017-12-26T12:53:56.312Z,2.80
2017-12-26T12:54:56.324Z,2.50
2017-12-26T12:55:56.339Z,3.30
2017-12-26T12:56:56.356Z,2.70
2017-12-26T12:57:56.366Z,3.80
2017-12-26T12:58:56.378Z,3.50
2017-12-26T12:59:56.392Z,4.80
2017-12-26T13:00:56.407Z,5.80
2017-12-26T13:01:56.420Z,3.90
2017-12-26T13:02:56.448Z,2.80
2017-12-26T13:03:56.444Z,2.80
2017-12-26T13:04:56.463Z,3.70
2017-12-26T13:05:56.469Z,3.30
2017-12-26T13:06:56.486Z,4.20
2017-12-26T13:07:56.496Z,4.70
2017-12-26T13:08:56.509Z,3.60
2017-12-26T13:09:56.525Z,3.00
2017-12-26T13:10:56.537Z,2.80
2017-12-26T13:11:56.552Z,4.00
2017-12-26T13:12:56.569Z,2.90
2017-12-26T13:13:56.579Z,5.10
2017-12-26T13:14:56.593Z,2.40
2017-12-26T13:15:56.608Z,3.80
2017-12-26T13:16:56.618Z,3.70
2017-12-26T13:17:56.633Z,3.50
2017-12-26T13:18:56.654Z,2.60